Terminal Aerodrome Forecast
Issued by NWS

Home | Current Version | Previous Version | Text Only | Print | Product List | Glossary On
Versions: 1 2 3 4 5 6 7 8 9 10 11 12 13 14 15 16 17 18
000
FTAK31 PANC 201220 AAA
TAFATK
TAF AMD
PATK 201220Z 2012/2112 15006KT P6SM -SHRA SCT030 OVC045
      TEMPO 2012/2016 5SM -SHRA BKN025 OVC040
     FM210300 34008G15KT P6SM VCSH BKN050=

USA.gov is the U.S. government's official web portal to all federal, state and local government web resources and services.